Time;durP1;ratioP1;P1;durP2;ratioP2;P2;SDS_P1;SDS_P2;PMS_P1;PMS_P2;Temp;Humidity;BMP_temperature;BMP_pressure;BME280_temperature;BME280_humidity;BME280_pressure;Samples;Min_cycle;Max_cycle;Signal;HPM_P1;HPM_P2
2021/10/14 00:00:36;;;;;;;;;;;;;;;19.70;58.78;102640.03;5101097;28;19916;-82
2021/10/14 00:03:01;;;;;;;;;;;;;;;19.87;57.81;102639.06;5083122;28;19916;-82
2021/10/14 00:05:27;;;;;;;;;;;;;;;20.01;57.49;102639.16;5082937;28;20388;-84
2021/10/14 00:07:52;;;;;;;;;;;;;;;20.17;56.91;102636.41;5099508;28;20339;-82
2021/10/14 00:10:17;;;;;;;;;;;;;;;20.21;56.66;102634.34;5101146;28;19916;-83
2021/10/14 00:12:42;;;;;;;;;;;;;;;19.95;58.19;102634.91;5102024;28;19916;-84
2021/10/14 00:15:08;;;;;;;;;;;;;;;19.95;57.18;102629.41;5101832;28;19920;-82
2021/10/14 00:17:34;;;;;;;;;;;;;;;19.98;57.71;102631.97;5084303;28;19971;-83
2021/10/14 00:19:59;;;;;;;;;;;;;;;19.36;59.58;102633.72;5084015;28;19935;-83
2021/10/14 00:22:24;;;;;;;;;;;;;;;20.42;56.52;102627.53;5083747;28;20402;-81
2021/10/14 00:24:52;;;;;;;;;;;;;;;19.83;58.40;102625.53;5099767;28;19938;-84
2021/10/14 00:27:17;;;;;;;;;;;;;;;20.35;56.46;102616.03;5100837;28;19952;-83
2021/10/14 00:29:42;;;;;;;;;;;;;;;20.70;55.41;102614.88;5082777;28;19931;-82
2021/10/14 00:32:07;;;;;;;;;;;;;;;20.12;57.20;102608.28;5099900;28;20011;-83
2021/10/14 00:34:32;;;;;;;;;;;;;;;20.27;57.32;102610.09;5099835;28;19927;-82
2021/10/14 00:36:58;;;;;;;;;;;;;;;20.26;56.85;102607.44;5100224;28;19916;-84
2021/10/14 00:39:23;;;;;;;;;;;;;;;20.49;56.29;102606.06;5081525;28;19959;-83
2021/10/14 00:41:48;;;;;;;;;;;;;;;20.14;57.78;102612.72;5099285;28;19916;-82
2021/10/14 00:44:13;;;;;;;;;;;;;;;19.99;57.87;102609.03;5082981;28;19916;-83
2021/10/14 00:46:48;;;;;;;;;;;;;;;20.46;56.93;102612.63;5101220;28;19927;-83
2021/10/14 00:49:13;;;;;;;;;;;;;;;19.86;58.26;102604.38;5101117;28;19924;-82
2021/10/14 00:51:40;;;;;;;;;;;;;;;20.06;58.95;102597.66;5082120;28;19924;-84
2021/10/14 00:54:05;;;;;;;;;;;;;;;20.19;57.89;102588.59;5082087;28;19910;-81
2021/10/14 00:56:30;;;;;;;;;;;;;;;20.46;57.52;102598.00;5100317;28;20007;-81
2021/10/14 00:58:55;;;;;;;;;;;;;;;19.94;60.24;102591.03;5080913;28;19942;-83
2021/10/14 01:01:20;;;;;;;;;;;;;;;20.51;57.81;102587.59;5082287;28;19955;-82
2021/10/14 01:03:46;;;;;;;;;;;;;;;20.29;58.70;102585.28;5082673;28;19916;-84
2021/10/14 01:06:11;;;;;;;;;;;;;;;20.62;57.33;102578.66;5083039;28;19958;-83
2021/10/14 01:08:36;;;;;;;;;;;;;;;20.60;58.04;102583.41;5083266;28;19911;-83
2021/10/14 01:11:01;;;;;;;;;;;;;;;20.91;56.00;102579.63;5082434;28;19930;-82
2021/10/14 01:13:27;;;;;;;;;;;;;;;19.79;60.81;102580.00;5082363;28;20296;-82
2021/10/14 01:15:52;;;;;;;;;;;;;;;20.70;58.01;102573.63;5083083;28;20185;-82
2021/10/14 01:18:17;;;;;;;;;;;;;;;20.35;59.39;102576.66;5082953;28;19920;-83
2021/10/14 01:20:43;;;;;;;;;;;;;;;19.85;59.62;102577.88;5099186;28;19923;-83
2021/10/14 01:23:08;;;;;;;;;;;;;;;20.37;59.28;102574.72;5099117;28;19937;-83
2021/10/14 01:25:33;;;;;;;;;;;;;;;20.65;58.89;102568.41;5099445;28;19923;-83
2021/10/14 01:27:58;;;;;;;;;;;;;;;20.87;57.54;102567.91;5081974;28;20392;-82
2021/10/14 01:30:24;;;;;;;;;;;;;;;21.02;57.60;102565.19;5077702;28;20293;-82
2021/10/14 01:32:49;;;;;;;;;;;;;;;21.15;56.44;102571.66;5077915;28;19924;-84
2021/10/14 01:35:16;;;;;;;;;;;;;;;20.13;59.95;102566.97;5079487;28;19913;-83
2021/10/14 01:37:41;;;;;;;;;;;;;;;20.78;57.86;102568.50;5077724;28;19942;-82
2021/10/14 01:40:06;;;;;;;;;;;;;;;20.54;59.10;102577.28;5077609;28;19920;-83
2021/10/14 01:42:31;;;;;;;;;;;;;;;20.66;59.21;102570.16;5077131;28;19920;-83
2021/10/14 01:44:57;;;;;;;;;;;;;;;21.15;57.19;102573.50;5077665;28;19923;-81
2021/10/14 01:47:23;;;;;;;;;;;;;;;21.74;55.22;102568.69;5077910;28;20373;-82
2021/10/14 01:49:48;;;;;;;;;;;;;;;21.19;57.10;102567.69;5077283;28;19927;-82
2021/10/14 01:52:13;;;;;;;;;;;;;;;21.51;55.79;102566.59;5076818;28;19920;-82
2021/10/14 01:54:38;;;;;;;;;;;;;;;20.85;58.04;102563.53;5078013;28;20291;-82
2021/10/14 01:57:04;;;;;;;;;;;;;;;21.27;56.98;102569.06;5077768;28;20006;-82
2021/10/14 01:59:29;;;;;;;;;;;;;;;20.49;59.54;102562.06;5078020;28;20370;-82
2021/10/14 02:01:54;;;;;;;;;;;;;;;20.48;59.95;102561.16;5078335;28;19948;-81
2021/10/14 02:04:19;;;;;;;;;;;;;;;20.43;59.83;102557.84;5077752;28;20023;-82
2021/10/14 02:06:44;;;;;;;;;;;;;;;20.56;59.25;102563.44;5078097;28;19921;-83
2021/10/14 02:09:10;;;;;;;;;;;;;;;20.42;59.87;102563.44;5077323;28;19962;-82
2021/10/14 02:11:35;;;;;;;;;;;;;;;20.35;59.81;102562.91;5077523;28;19924;-82
2021/10/14 02:14:00;;;;;;;;;;;;;;;20.69;58.26;102555.34;5077307;28;19920;-81
2021/10/14 02:16:25;;;;;;;;;;;;;;;20.55;58.08;102556.19;5077470;28;19916;-81
2021/10/14 02:18:50;;;;;;;;;;;;;;;19.69;61.07;102553.13;5077571;28;20124;-82
2021/10/14 02:21:17;;;;;;;;;;;;;;;19.88;60.20;102561.19;5077081;28;19916;-82
2021/10/14 02:23:43;;;;;;;;;;;;;;;20.51;57.90;102558.22;5078389;28;20007;-82
2021/10/14 02:26:08;;;;;;;;;;;;;;;20.06;59.34;102559.22;5078493;28;19952;-81
2021/10/14 02:28:33;;;;;;;;;;;;;;;19.96;59.91;102564.38;5079263;28;19939;-81
2021/10/14 02:30:59;;;;;;;;;;;;;;;20.39;57.62;102560.88;5077720;28;19941;-81
2021/10/14 02:33:24;;;;;;;;;;;;;;;20.38;57.53;102551.72;5077209;28;20003;-82
2021/10/14 02:35:49;;;;;;;;;;;;;;;20.41;57.53;102548.81;5111076;28;19948;-84
2021/10/14 02:38:14;;;;;;;;;;;;;;;19.94;59.36;102538.84;5077821;28;19913;-81
2021/10/14 02:40:39;;;;;;;;;;;;;;;20.18;58.72;102542.88;5077447;28;19920;-82
2021/10/14 02:43:05;;;;;;;;;;;;;;;19.76;59.83;102535.31;5077528;28;20428;-84
2021/10/14 02:45:30;;;;;;;;;;;;;;;19.93;59.60;102540.72;5077547;28;20251;-84
2021/10/14 02:47:55;;;;;;;;;;;;;;;20.18;58.43;102531.88;5078896;28;19975;-82
2021/10/14 02:50:20;;;;;;;;;;;;;;;20.10;58.68;102527.84;5079796;28;19974;-83
2021/10/14 02:52:46;;;;;;;;;;;;;;;19.99;58.61;102523.00;5084773;28;19973;-84
2021/10/14 02:55:11;;;;;;;;;;;;;;;19.55;60.28;102515.50;5083209;28;19912;-83
2021/10/14 02:57:36;;;;;;;;;;;;;;;19.28;61.48;102518.91;5083497;28;19917;-81
2021/10/14 03:00:04;;;;;;;;;;;;;;;19.88;59.76;102522.75;5083729;28;19932;-81
2021/10/14 03:02:29;;;;;;;;;;;;;;;20.34;57.62;102522.69;5085202;28;20431;-83
2021/10/14 03:04:54;;;;;;;;;;;;;;;19.83;58.70;102521.16;5083251;28;19916;-80
2021/10/14 03:07:19;;;;;;;;;;;;;;;19.21;61.24;102529.34;5084540;28;19925;-82
2021/10/14 03:09:44;;;;;;;;;;;;;;;20.15;58.78;102520.19;5083351;28;20408;-81
2021/10/14 03:12:10;;;;;;;;;;;;;;;19.67;61.09;102525.75;5081942;28;20378;-83
2021/10/14 03:14:35;;;;;;;;;;;;;;;20.15;58.59;102533.91;5080895;28;19912;-84
2021/10/14 03:17:00;;;;;;;;;;;;;;;20.20;58.76;102531.78;5082036;28;19920;-83
2021/10/14 03:19:25;;;;;;;;;;;;;;;19.65;60.75;102527.72;5081431;28;19928;-83
2021/10/14 03:21:50;;;;;;;;;;;;;;;20.23;59.54;102530.69;5081843;28;19959;-82
2021/10/14 03:24:16;;;;;;;;;;;;;;;20.25;58.70;102531.50;5083567;28;19917;-83
2021/10/14 03:26:41;;;;;;;;;;;;;;;20.77;57.50;102533.72;5083895;28;19917;-83
2021/10/14 03:29:06;;;;;;;;;;;;;;;20.28;59.54;102534.06;5082482;28;19942;-82
2021/10/14 03:31:31;;;;;;;;;;;;;;;20.94;57.19;102540.00;5082310;28;19916;-83
2021/10/14 03:33:57;;;;;;;;;;;;;;;21.09;56.59;102541.78;5084048;28;19916;-83
2021/10/14 03:36:22;;;;;;;;;;;;;;;21.46;55.15;102528.31;5083238;28;20387;-83
2021/10/14 03:38:47;;;;;;;;;;;;;;;21.77;54.01;102527.16;5102240;28;19924;-84
2021/10/14 03:41:12;;;;;;;;;;;;;;;21.80;53.29;102522.41;5083768;28;20015;-83
2021/10/14 03:43:37;;;;;;;;;;;;;;;22.03;52.92;102523.59;5083651;28;19916;-84
2021/10/14 03:46:03;;;;;;;;;;;;;;;22.17;52.42;102517.97;5083684;28;19931;-82
2021/10/14 03:48:28;;;;;;;;;;;;;;;21.79;53.63;102515.16;5082968;28;20365;-82
2021/10/14 03:50:53;;;;;;;;;;;;;;;21.82;53.18;102515.81;5083202;28;20380;-84
2021/10/14 03:53:19;;;;;;;;;;;;;;;22.26;52.56;102513.69;5082675;28;19928;-81
2021/10/14 03:55:44;;;;;;;;;;;;;;;22.26;52.27;102506.31;5067264;28;19924;-82
2021/10/14 03:58:09;;;;;;;;;;;;;;;22.27;51.74;102513.59;5084123;28;20354;-83
2021/10/14 04:00:34;;;;;;;;;;;;;;;22.51;51.05;102509.22;5084733;28;19959;-82
2021/10/14 04:02:59;;;;;;;;;;;;;;;22.29;52.25;102513.47;5084343;28;19923;-82
2021/10/14 04:05:25;;;;;;;;;;;;;;;21.94;53.02;102520.47;5083904;28;19916;-81
2021/10/14 04:07:50;;;;;;;;;;;;;;;21.67;54.21;102530.66;5101875;28;19917;-83
2021/10/14 04:10:15;;;;;;;;;;;;;;;21.51;54.89;102536.31;5101682;28;19916;-84
2021/10/14 04:12:41;;;;;;;;;;;;;;;21.97;53.84;102526.75;5083705;28;19917;-82
2021/10/14 04:15:07;;;;;;;;;;;;;;;21.87;54.13;102513.63;5084120;28;20422;-82
2021/10/14 04:17:32;;;;;;;;;;;;;;;21.50;54.72;102526.25;5084564;28;19923;-83
2021/10/14 04:19:57;;;;;;;;;;;;;;;21.71;54.43;102523.94;5085540;28;19987;-83
2021/10/14 04:22:22;;;;;;;;;;;;;;;21.10;56.67;102517.91;5103069;28;19927;-82
2021/10/14 04:24:48;;;;;;;;;;;;;;;20.84;57.25;102523.22;5083405;28;19912;-82
2021/10/14 04:27:16;;;;;;;;;;;;;;;20.34;59.90;102525.44;5102414;28;19920;-82
2021/10/14 04:29:41;;;;;;;;;;;;;;;21.46;56.14;102516.44;5100775;28;19920;-82
2021/10/14 04:32:08;;;;;;;;;;;;;;;21.94;54.18;102511.34;5100694;28;20250;-82
2021/10/14 04:34:33;;;;;;;;;;;;;;;20.93;57.75;102519.00;5100431;28;19946;-83
2021/10/14 04:37:00;;;;;;;;;;;;;;;21.48;55.95;102517.19;5082082;28;19920;-82
2021/10/14 04:39:26;;;;;;;;;;;;;;;22.25;53.16;102517.44;5100473;28;19955;-84
2021/10/14 04:41:51;;;;;;;;;;;;;;;21.81;54.02;102516.81;5100044;28;19939;-82
2021/10/14 04:44:16;;;;;;;;;;;;;;;20.67;58.42;102516.06;5101056;28;20387;-82
2021/10/14 04:46:41;;;;;;;;;;;;;;;20.54;58.54;102522.28;5100971;28;19947;-85
2021/10/14 04:49:07;;;;;;;;;;;;;;;21.19;56.83;102512.66;5083624;28;19922;-85
2021/10/14 04:51:32;;;;;;;;;;;;;;;21.40;55.78;102512.22;5082831;28;20355;-83
2021/10/14 04:53:57;;;;;;;;;;;;;;;22.10;53.59;102508.38;5082857;28;19923;-83
2021/10/14 04:56:22;;;;;;;;;;;;;;;21.49;55.90;102508.84;5098966;28;19922;-81
2021/10/14 04:58:48;;;;;;;;;;;;;;;20.99;57.16;102508.47;5083645;28;19920;-83
2021/10/14 05:01:13;;;;;;;;;;;;;;;21.19;56.35;102512.66;5086106;28;19939;-82
2021/10/14 05:03:38;;;;;;;;;;;;;;;21.52;55.69;102508.66;5086643;28;19922;-88
2021/10/14 05:06:03;;;;;;;;;;;;;;;21.46;55.61;102503.53;5084416;28;19942;-85
2021/10/14 05:08:29;;;;;;;;;;;;;;;21.07;56.54;102505.22;5084831;28;19912;-85
2021/10/14 05:10:54;;;;;;;;;;;;;;;20.83;57.75;102521.44;5080750;28;19923;-85
2021/10/14 05:13:19;;;;;;;;;;;;;;;21.11;56.74;102511.41;5080137;28;19920;-84
2021/10/14 05:15:44;;;;;;;;;;;;;;;21.80;54.26;102505.88;5080828;28;19928;-85
2021/10/14 05:18:09;;;;;;;;;;;;;;;22.18;52.74;102513.34;5081128;28;19993;-86
2021/10/14 05:20:35;;;;;;;;;;;;;;;21.72;53.37;102510.03;5080565;28;19916;-84
2021/10/14 05:23:00;;;;;;;;;;;;;;;22.10;52.31;102505.63;5081200;28;19923;-85
2021/10/14 05:25:26;;;;;;;;;;;;;;;21.79;52.67;102506.91;5080780;28;19916;-83
2021/10/14 05:27:51;;;;;;;;;;;;;;;22.27;51.49;102505.31;5079604;28;19916;-85
2021/10/14 05:30:17;;;;;;;;;;;;;;;22.33;50.90;102506.78;5080857;28;19924;-82
2021/10/14 05:32:44;;;;;;;;;;;;;;;22.29;51.30;102503.31;5098387;28;19920;-84
2021/10/14 05:35:09;;;;;;;;;;;;;;;20.84;55.44;102506.72;5081396;28;19923;-87
2021/10/14 05:37:35;;;;;;;;;;;;;;;21.54;52.92;102508.56;5081924;28;19916;-85
2021/10/14 05:40:01;;;;;;;;;;;;;;;20.59;55.35;102502.75;5099730;28;20015;-84
2021/10/14 05:42:26;;;;;;;;;;;;;;;21.72;52.48;102509.16;5098118;28;19948;-84
2021/10/14 05:44:51;;;;;;;;;;;;;;;21.77;52.07;102504.25;5080694;28;20432;-84
2021/10/14 05:47:16;;;;;;;;;;;;;;;21.70;52.51;102505.66;5099937;28;19963;-84
2021/10/14 05:49:41;;;;;;;;;;;;;;;22.17;50.95;102504.19;5080202;28;19959;-83
2021/10/14 05:52:07;;;;;;;;;;;;;;;21.51;52.54;102506.88;5098275;28;19962;-85
2021/10/14 05:54:33;;;;;;;;;;;;;;;22.19;50.52;102501.34;5098840;28;19900;-83
2021/10/14 05:56:58;;;;;;;;;;;;;;;21.97;50.69;102499.19;5082998;28;20269;-84
2021/10/14 05:59:24;;;;;;;;;;;;;;;21.98;51.00;102489.94;5080247;28;19964;-81
2021/10/14 06:01:49;;;;;;;;;;;;;;;21.72;50.91;102501.78;5080893;28;19968;-84
2021/10/14 06:04:14;;;;;;;;;;;;;;;21.82;51.45;102499.28;5099056;28;20289;-88
2021/10/14 06:06:40;;;;;;;;;;;;;;;22.06;50.88;102498.56;5078417;28;19923;-84
2021/10/14 06:09:05;;;;;;;;;;;;;;;22.04;50.85;102493.19;5097710;28;19924;-83
2021/10/14 06:11:30;;;;;;;;;;;;;;;21.97;51.14;102494.59;5079420;28;19912;-85
2021/10/14 06:13:55;;;;;;;;;;;;;;;21.51;53.07;102500.50;5079349;28;20017;-82
2021/10/14 06:16:21;;;;;;;;;;;;;;;21.89;51.76;102489.63;5076094;28;19924;-82
2021/10/14 06:18:46;;;;;;;;;;;;;;;21.88;51.21;102493.34;5096981;28;20312;-84
2021/10/14 06:21:11;;;;;;;;;;;;;;;21.76;52.11;102495.06;5078808;28;19916;-83
2021/10/14 06:23:36;;;;;;;;;;;;;;;22.01;51.43;102487.88;5077629;28;19927;-83
2021/10/14 06:26:02;;;;;;;;;;;;;;;21.57;51.78;102489.97;5097126;28;19920;-84
2021/10/14 06:28:27;;;;;;;;;;;;;;;21.34;53.14;102490.59;5079592;28;19916;-84
2021/10/14 06:30:52;;;;;;;;;;;;;;;21.31;53.46;102497.19;5076990;28;19920;-83
2021/10/14 06:33:17;;;;;;;;;;;;;;;21.97;51.82;102489.06;5076926;28;19931;-83
2021/10/14 06:35:43;;;;;;;;;;;;;;;21.40;53.02;102495.69;5077497;28;19960;-83
2021/10/14 06:38:08;;;;;;;;;;;;;;;21.10;53.91;102493.13;5077573;28;20353;-83
2021/10/14 06:40:34;;;;;;;;;;;;;;;21.60;52.51;102488.84;5079416;28;19916;-83
2021/10/14 06:42:59;;;;;;;;;;;;;;;21.70;51.66;102494.63;5098212;28;19913;-83
2021/10/14 06:45:24;;;;;;;;;;;;;;;21.98;51.26;102492.69;5079944;28;20400;-83
2021/10/14 06:47:49;;;;;;;;;;;;;;;21.55;52.56;102491.94;5097200;28;19920;-83
2021/10/14 06:50:15;;;;;;;;;;;;;;;20.95;54.19;102486.75;5079713;28;19916;-83
2021/10/14 06:52:40;;;;;;;;;;;;;;;21.11;54.58;102487.53;5079282;28;20320;-82
2021/10/14 06:55:06;;;;;;;;;;;;;;;21.47;53.21;102491.53;5079124;28;19920;-81
2021/10/14 06:57:31;;;;;;;;;;;;;;;21.70;52.03;102489.13;5097955;28;19916;-81
2021/10/14 06:59:56;;;;;;;;;;;;;;;22.21;50.55;102480.94;5098114;28;20369;-81
2021/10/14 07:02:21;;;;;;;;;;;;;;;22.17;50.65;102487.66;5080143;28;19920;-84
2021/10/14 07:04:47;;;;;;;;;;;;;;;21.95;50.92;102489.19;5080886;28;19916;-86
2021/10/14 07:07:12;;;;;;;;;;;;;;;21.56;51.70;102484.56;5099505;28;19901;-84
2021/10/14 07:09:37;;;;;;;;;;;;;;;21.74;51.66;102487.91;5073663;28;19923;-83
2021/10/14 07:12:10;;;;;;;;;;;;;;;22.08;50.04;102488.31;5060218;28;19946;-84
2021/10/14 07:14:35;;;;;;;;;;;;;;;21.48;52.18;102493.28;5076072;28;19920;-83
2021/10/14 07:17:00;;;;;;;;;;;;;;;21.65;50.90;102494.03;5076748;28;19966;-84
2021/10/14 07:19:25;;;;;;;;;;;;;;;22.12;49.77;102481.59;5075897;28;19977;-85
2021/10/14 07:21:51;;;;;;;;;;;;;;;21.69;51.13;102492.84;5079837;28;19916;-83
2021/10/14 07:24:17;;;;;;;;;;;;;;;21.46;51.92;102487.00;5080122;28;19916;-84
2021/10/14 07:26:42;;;;;;;;;;;;;;;21.14;52.60;102487.31;5081849;28;19979;-85
2021/10/14 07:29:08;;;;;;;;;;;;;;;22.05;49.86;102483.03;5081423;28;19956;-85
2021/10/14 07:31:33;;;;;;;;;;;;;;;21.64;51.49;102473.91;5098474;28;19979;-84
2021/10/14 07:33:58;;;;;;;;;;;;;;;22.20;49.76;102479.16;5081262;28;20373;-87
2021/10/14 07:36:26;;;;;;;;;;;;;;;21.47;52.00;102483.28;5080957;28;19916;-86
2021/10/14 07:38:52;;;;;;;;;;;;;;;21.70;51.55;102478.97;5084651;28;19916;-85
2021/10/14 07:41:17;;;;;;;;;;;;;;;21.57;52.00;102478.06;5084651;28;19939;-85
2021/10/14 07:43:42;;;;;;;;;;;;;;;21.75;51.46;102481.41;5084272;28;19920;-85
2021/10/14 07:46:09;;;;;;;;;;;;;;;21.85;51.45;102477.03;5102316;28;20370;-85
2021/10/14 07:48:35;;;;;;;;;;;;;;;21.35;52.85;102481.38;5083819;28;19916;-82
2021/10/14 07:51:01;;;;;;;;;;;;;;;20.73;54.74;102481.75;5084159;28;19927;-85
2021/10/14 07:53:26;;;;;;;;;;;;;;;21.19;54.04;102476.88;5082983;28;19916;-85
2021/10/14 07:55:52;;;;;;;;;;;;;;;21.89;51.86;102478.59;5102123;28;20007;-86
2021/10/14 07:58:17;;;;;;;;;;;;;;;22.29;51.07;102481.25;5100940;28;19951;-86
2021/10/14 08:00:42;;;;;;;;;;;;;;;22.21;51.00;102480.94;5082643;28;19943;-86
2021/10/14 08:03:08;;;;;;;;;;;;;;;21.98;51.57;102479.78;5082255;28;19900;-85
2021/10/14 08:05:33;;;;;;;;;;;;;;;21.56;53.28;102488.19;5099999;28;20019;-81
2021/10/14 08:07:59;;;;;;;;;;;;;;;21.56;53.24;102490.94;5080630;28;19916;-86
2021/10/14 08:10:25;;;;;;;;;;;;;;;22.30;50.81;102494.06;5100770;28;19916;-84
2021/10/14 08:12:50;;;;;;;;;;;;;;;22.41;50.77;102484.19;5082664;28;19923;-86
2021/10/14 08:15:15;;;;;;;;;;;;;;;22.21;51.38;102478.19;5083293;28;20335;-85
2021/10/14 08:17:41;;;;;;;;;;;;;;;22.37;51.13;102485.38;5100769;28;19916;-83
2021/10/14 08:20:07;;;;;;;;;;;;;;;22.53;50.37;102482.41;5081351;28;20361;-83
2021/10/14 08:22:32;;;;;;;;;;;;;;;22.23;51.12;102492.75;5080652;28;19950;-81
2021/10/14 08:24:59;;;;;;;;;;;;;;;21.62;52.84;102486.00;5080093;28;19916;-83
2021/10/14 08:27:24;;;;;;;;;;;;;;;21.93;51.20;102484.75;5081870;28;19935;-82
2021/10/14 08:29:50;;;;;;;;;;;;;;;21.42;53.24;102490.94;5080442;28;19920;-84
2021/10/14 08:32:16;;;;;;;;;;;;;;;21.81;52.88;102486.50;5081850;28;20505;-83
2021/10/14 08:34:41;;;;;;;;;;;;;;;22.63;50.71;102478.88;5081239;28;19896;-83
2021/10/14 08:37:06;;;;;;;;;;;;;;;22.55;50.23;102481.28;5080663;28;20061;-83
2021/10/14 08:39:31;;;;;;;;;;;;;;;21.57;52.74;102489.97;5097491;28;20003;-81
2021/10/14 08:41:59;;;;;;;;;;;;;;;23.75;47.73;102481.59;5098103;28;19918;-83
2021/10/14 08:44:26;;;;;;;;;;;;;;;23.20;48.30;102486.72;5081115;28;19920;-83
2021/10/14 08:46:53;;;;;;;;;;;;;;;21.88;51.76;102485.09;5082233;28;19924;-85
2021/10/14 08:49:18;;;;;;;;;;;;;;;22.78;50.80;102481.47;5082162;28;19921;-85
2021/10/14 08:51:44;;;;;;;;;;;;;;;22.13;52.67;102487.00;5081968;28;19924;-86
2021/10/14 08:54:09;;;;;;;;;;;;;;;22.15;52.75;102488.75;5081715;28;19912;-86
2021/10/14 08:56:34;;;;;;;;;;;;;;;22.34;52.29;102485.63;5081206;28;19924;-84
2021/10/14 08:59:00;;;;;;;;;;;;;;;22.33;51.31;102486.59;5082351;28;20346;-83
2021/10/14 09:01:25;;;;;;;;;;;;;;;21.68;53.80;102491.06;5083636;28;20018;-85
2021/10/14 09:03:52;;;;;;;;;;;;;;;21.84;53.16;102488.16;5083985;28;19916;-84
2021/10/14 09:06:18;;;;;;;;;;;;;;;22.43;51.66;102482.19;5082731;28;19912;-85
2021/10/14 09:08:45;;;;;;;;;;;;;;;22.28;51.61;102482.28;5082756;28;19920;-85
2021/10/14 09:11:12;;;;;;;;;;;;;;;22.56;50.75;102480.31;5100584;28;19937;-85
2021/10/14 09:13:48;;;;;;;;;;;;;;;22.64;50.54;102480.63;5081151;28;19916;-87
2021/10/14 09:16:33;;;;;;;;;;;;;;;22.55;49.75;102492.31;5093807;28;19920;-86
2021/10/14 09:19:11;;;;;;;;;;;;;;;22.40;49.84;102487.94;5083103;28;19976;-86
2021/10/14 09:21:36;;;;;;;;;;;;;;;22.01;49.89;102489.72;5084081;28;19916;-84
2021/10/14 09:24:21;;;;;;;;;;;;;;;21.88;50.12;102486.97;5100465;28;19917;-85
2021/10/14 09:26:47;;;;;;;;;;;;;;;21.56;50.51;102493.69;5082524;28;19973;-84
2021/10/14 09:29:13;;;;;;;;;;;;;;;21.66;49.97;102487.56;5081727;28;19916;-84
2021/10/14 09:31:51;;;;;;;;;;;;;;;21.75;50.14;102485.03;5081174;28;19916;-84
2021/10/14 09:34:40;;;;;;;;;;;;;;;22.23;48.50;102484.47;5074511;28;20377;-85
2021/10/14 09:37:15;;;;;;;;;;;;;;;21.61;49.46;102487.88;5072778;28;19923;-86
2021/10/14 09:39:54;;;;;;;;;;;;;;;22.13;48.21;102475.06;5081471;28;19916;-86
2021/10/14 09:42:38;;;;;;;;;;;;;;;22.05;48.92;102469.25;5081274;28;19922;-85
2021/10/14 09:45:15;;;;;;;;;;;;;;;22.59;47.54;102466.28;5098824;28;19990;-85
2021/10/14 09:47:46;;;;;;;;;;;;;;;22.89;46.86;102462.28;5079620;28;19923;-84
2021/10/14 09:50:11;;;;;;;;;;;;;;;22.79;46.42;102466.72;5080402;28;19916;-85
2021/10/14 09:52:36;;;;;;;;;;;;;;;22.06;47.98;102474.66;5079587;28;19916;-85
2021/10/14 09:55:02;;;;;;;;;;;;;;;22.45;47.15;102470.06;5098868;28;19916;-84
2021/10/14 09:57:27;;;;;;;;;;;;;;;22.61;47.38;102464.28;5080653;28;19955;-83
2021/10/14 09:59:52;;;;;;;;;;;;;;;21.75;47.83;102464.88;5098892;28;19983;-84
2021/10/14 10:02:18;;;;;;;;;;;;;;;22.06;47.94;102471.03;5099453;28;19912;-84
2021/10/14 10:04:43;;;;;;;;;;;;;;;22.26;47.75;102464.06;5080432;28;19942;-85
2021/10/14 10:07:09;;;;;;;;;;;;;;;22.51;46.00;102471.50;5082122;28;19938;-87
2021/10/14 10:09:37;;;;;;;;;;;;;;;22.43;47.15;102461.00;5080396;28;19924;-83
2021/10/14 10:12:04;;;;;;;;;;;;;;;22.32;46.68;102457.28;5081655;28;19920;-84
2021/10/14 10:14:30;;;;;;;;;;;;;;;22.37;47.02;102457.81;5080660;28;20433;-86
2021/10/14 10:17:08;;;;;;;;;;;;;;;22.68;46.37;102456.47;5099414;28;19935;-85
2021/10/14 10:19:44;;;;;;;;;;;;;;;23.41;45.46;102445.53;5080554;28;20427;-83
2021/10/14 10:22:11;;;;;;;;;;;;;;;22.73;46.95;102440.44;5077930;28;19917;-83
2021/10/14 10:24:36;;;;;;;;;;;;;;;23.36;45.82;102441.25;5078739;28;19959;-84
2021/10/14 10:27:02;;;;;;;;;;;;;;;23.64;44.47;102443.75;5080607;28;19927;-85
2021/10/14 10:29:28;;;;;;;;;;;;;;;23.11;46.08;102438.59;5099396;28;19920;-87
2021/10/14 10:31:56;;;;;;;;;;;;;;;23.64;44.70;102441.88;5079632;28;19927;-84
2021/10/14 10:34:31;;;;;;;;;;;;;;;23.97;43.72;102436.59;5097922;28;20373;-85
2021/10/14 10:37:09;;;;;;;;;;;;;;;24.35;42.63;102438.16;5099962;28;19946;-87
2021/10/14 10:39:40;;;;;;;;;;;;;;;22.97;45.00;102439.63;5080419;28;20022;-82
2021/10/14 10:42:22;;;;;;;;;;;;;;;22.87;45.08;102433.88;5080509;28;19916;-84
2021/10/14 10:44:48;;;;;;;;;;;;;;;23.38;44.24;102434.72;5080001;28;19916;-84
2021/10/14 10:47:32;;;;;;;;;;;;;;;22.79;45.82;102431.69;5080666;28;19927;-84
2021/10/14 10:49:57;;;;;;;;;;;;;;;22.61;46.24;102442.22;5081131;28;19916;-84
2021/10/14 10:52:32;;;;;;;;;;;;;;;22.34;46.76;102442.38;5082448;28;20384;-85
2021/10/14 10:55:02;;;;;;;;;;;;;;;21.46;48.58;102440.22;5081832;28;20368;-85
2021/10/14 10:57:42;;;;;;;;;;;;;;;21.52;48.79;102433.44;5082122;28;20034;-83
2021/10/14 11:00:08;;;;;;;;;;;;;;;22.68;46.25;102436.25;5099791;28;20292;-87
2021/10/14 11:02:33;;;;;;;;;;;;;;;22.39;46.32;102426.38;5080872;28;19971;-85
2021/10/14 11:05:00;;;;;;;;;;;;;;;23.36;44.91;102424.69;5080667;28;20357;-85
2021/10/14 11:07:25;;;;;;;;;;;;;;;22.39;46.01;102425.47;5081725;28;19912;-86
2021/10/14 11:09:50;;;;;;;;;;;;;;;22.89;45.87;102423.63;5080849;28;20400;-86
2021/10/14 11:12:17;;;;;;;;;;;;;;;23.49;44.33;102416.34;5081993;28;19974;-86
2021/10/14 11:14:42;;;;;;;;;;;;;;;23.05;44.97;102409.53;5102536;28;19923;-85
2021/10/14 11:17:11;;;;;;;;;;;;;;;24.07;42.80;102407.22;5083783;28;20373;-83
2021/10/14 11:19:39;;;;;;;;;;;;;;;23.25;44.68;102410.84;5083352;28;19916;-86
2021/10/14 11:22:14;;;;;;;;;;;;;;;22.30;46.32;102416.88;5083046;28;19920;-85
2021/10/14 11:24:41;;;;;;;;;;;;;;;22.21;46.84;102406.50;5083476;28;19994;-83
2021/10/14 11:27:11;;;;;;;;;;;;;;;22.49;46.51;102399.00;5082754;28;19942;-84
2021/10/14 11:29:37;;;;;;;;;;;;;;;22.42;46.54;102397.69;5082784;28;19920;-83
2021/10/14 11:32:05;;;;;;;;;;;;;;;22.17;46.62;102398.59;5084401;28;20418;-86
2021/10/14 11:34:31;;;;;;;;;;;;;;;21.82;47.42;102400.09;5083728;28;19923;-83
2021/10/14 11:36:56;;;;;;;;;;;;;;;21.86;47.90;102393.41;5082566;28;19912;-85
2021/10/14 11:39:22;;;;;;;;;;;;;;;22.75;45.33;102388.81;5083499;28;19923;-85
2021/10/14 11:41:58;;;;;;;;;;;;;;;22.42;46.73;102393.06;5101505;28;19918;-86
2021/10/14 11:44:25;;;;;;;;;;;;;;;22.48;46.54;102389.84;5082973;28;19920;-84
2021/10/14 11:46:50;;;;;;;;;;;;;;;22.26;46.74;102387.75;5099798;28;19934;-84
2021/10/14 11:49:15;;;;;;;;;;;;;;;21.89;47.73;102386.75;5082421;28;20357;-85
2021/10/14 11:51:41;;;;;;;;;;;;;;;22.15;46.97;102384.91;5081738;28;19916;-85
2021/10/14 11:54:07;;;;;;;;;;;;;;;21.77;48.18;102381.16;5081890;28;19964;-84
2021/10/14 11:56:53;;;;;;;;;;;;;;;21.98;47.17;102379.72;5081693;28;19924;-85
2021/10/14 11:59:19;;;;;;;;;;;;;;;22.70;45.87;102370.81;5080787;28;19916;-84
2021/10/14 12:01:54;;;;;;;;;;;;;;;22.40;45.82;102374.88;5098500;28;19916;-85
2021/10/14 12:04:20;;;;;;;;;;;;;;;22.87;45.41;102364.91;5098651;28;19916;-84
2021/10/14 12:06:46;;;;;;;;;;;;;;;22.57;46.30;102368.09;5081691;28;19947;-85
2021/10/14 12:09:15;;;;;;;;;;;;;;;22.88;45.28;102355.63;5082162;28;19923;-85
2021/10/14 12:11:40;;;;;;;;;;;;;;;22.21;46.94;102356.88;5082511;28;19967;-83
2021/10/14 12:14:06;;;;;;;;;;;;;;;23.65;43.57;102352.44;5080156;28;19923;-84
2021/10/14 12:16:32;;;;;;;;;;;;;;;23.15;44.20;102351.78;5081684;28;19934;-84
2021/10/14 12:19:13;;;;;;;;;;;;;;;23.20;44.39;102355.06;5081381;28;19916;-84
2021/10/14 12:21:41;;;;;;;;;;;;;;;23.11;44.98;102344.75;5081258;28;19919;-85
2021/10/14 12:24:08;;;;;;;;;;;;;;;22.64;44.93;102348.19;5082203;28;19981;-85
2021/10/14 12:26:35;;;;;;;;;;;;;;;22.54;45.47;102329.72;5100397;28;20276;-85
2021/10/14 12:29:18;;;;;;;;;;;;;;;21.76;46.95;102342.69;5082677;28;19927;-85
2021/10/14 12:31:43;;;;;;;;;;;;;;;22.58;44.81;102342.28;5081998;28;19924;-85